This is the latest recevied weather packets stored in our database for station/object VR2OT-10. If no packets are shown the sender has not sent any weather packets the latest 10 day(s).
| Time | Temp. | Humidity | Pressure | Rain* | Wind** | Luminosity | Snow |
|---|---|---|---|---|---|---|---|
| 1777859247 | - | 68% | 1016.2 hPa | - | 0.45 m/s, 0° | - | - |
| 1777857453 | - | 70% | 1015.7 hPa | - | 1.34 m/s, 135° | - | - |
| 1777856553 | - | 67% | 1015.5 hPa | - | 0.89 m/s, 135° | - | - |
| 1777855657 | - | 69% | 1015.5 hPa | - | 0 m/s | - | - |
| 1777853856 | - | 78% | 1015.6 hPa | - | 1.34 m/s, 270° | - | - |
| 1777853125 | - | 71% | 1015.2 hPa | - | 1.34 m/s, 135° | - | - |
| 1777851145 | - | 76% | 1014.8 hPa | - | 0.45 m/s, 180° | - | - |
| 1777850245 | - | 77% | 1014.5 hPa | - | 0.45 m/s, 225° | - | - |
| 1777849360 | - | 78% | 1014.2 hPa | - | 0 m/s | - | - |
| 1777848452 | - | 80% | 1014 hPa | - | 0.45 m/s, 225° | - | - |
| 1777846638 | - | 79% | 1013.7 hPa | - | 0.89 m/s, 180° | - | - |
| 1777845738 | - | 79% | 1013.2 hPa | - | 0.45 m/s, 180° | - | - |
| 1777844838 | - | 82% | 1013.1 hPa | - | 0.89 m/s, 135° | - | - |
| 1777843938 | - | 86% | 1012.6 hPa | - | 0 m/s | - | - |
| 1777843037 | - | 85% | 1012.5 hPa | - | 0.89 m/s, ° | - | - |
| 1777842139 | - | 88% | 1012 hPa | - | 1.34 m/s, 315° | - | - |
| 1777841238 | - | 88% | 1011.8 hPa | - | 1.34 m/s, 315° | - | - |
| 1777840338 | - | 89% | 1011.8 hPa | - | 0.45 m/s, 315° | - | - |
| 1777839438 | - | 88% | 1011.7 hPa | - | 0.45 m/s, 315° | - | - |
| 1777838539 | - | 90% | 1011.8 hPa | - | 1.34 m/s, 270° | - | - |
| 1777837638 | - | 89% | 1012 hPa | - | 3.58 m/s, 270° | - | - |
| 1777836739 | - | 89% | 1012.3 hPa | - | 3.13 m/s, 270° | - | - |
| 1777835838 | - | 89% | 1012.2 hPa | - | 3.58 m/s, 315° | - | - |
| 1777834938 | - | 89% | 1012.4 hPa | - | 2.24 m/s, 315° | - | - |
| 1777834038 | - | 88% | 1012.3 hPa | - | 1.34 m/s, 270° | - | - |
* Rain since midnight (hover to see other rain measurements)
** Current wind speed in m/s (hover to see current wind gust speed)